sensor_id;sensor_type;location;lat;lon;timestamp;temperature;humidity
7572;DHT22;3827;49.928;8.548;2023-06-14T00:02:00;16.60;99.90
7572;DHT22;3827;49.928;8.548;2023-06-14T00:04:27;16.50;99.90
7572;DHT22;3827;49.928;8.548;2023-06-14T00:06:55;16.50;99.90
7572;DHT22;3827;49.928;8.548;2023-06-14T00:09:22;16.40;99.90
7572;DHT22;3827;49.928;8.548;2023-06-14T00:11:49;16.40;99.90
7572;DHT22;3827;49.928;8.548;2023-06-14T00:14:16;16.40;99.90
7572;DHT22;3827;49.928;8.548;2023-06-14T00:16:44;16.30;99.90
7572;DHT22;3827;49.928;8.548;2023-06-14T00:19:11;16.40;99.90
7572;DHT22;3827;49.928;8.548;2023-06-14T00:21:38;16.40;99.90
7572;DHT22;3827;49.928;8.548;2023-06-14T00:24:05;16.30;99.90
7572;DHT22;3827;49.928;8.548;2023-06-14T00:26:31;16.30;99.90
7572;DHT22;3827;49.928;8.548;2023-06-14T00:28:58;16.30;99.90
7572;DHT22;3827;49.928;8.548;2023-06-14T00:31:25;16.30;99.90
7572;DHT22;3827;49.928;8.548;2023-06-14T00:33:53;16.20;99.90
7572;DHT22;3827;49.928;8.548;2023-06-14T00:36:20;16.20;99.90
7572;DHT22;3827;49.928;8.548;2023-06-14T00:38:47;16.20;99.90
7572;DHT22;3827;49.928;8.548;2023-06-14T00:41:13;16.20;99.90
7572;DHT22;3827;49.928;8.548;2023-06-14T00:43:40;16.10;99.90
7572;DHT22;3827;49.928;8.548;2023-06-14T00:46:07;16.10;99.90
7572;DHT22;3827;49.928;8.548;2023-06-14T00:48:34;16.10;99.90
7572;DHT22;3827;49.928;8.548;2023-06-14T00:51:03;16.10;99.90
7572;DHT22;3827;49.928;8.548;2023-06-14T00:53:31;16.10;99.90
7572;DHT22;3827;49.928;8.548;2023-06-14T00:56:00;16.10;99.90
7572;DHT22;3827;49.928;8.548;2023-06-14T00:58:27;16.10;99.90
7572;DHT22;3827;49.928;8.548;2023-06-14T01:00:54;16.00;99.90
7572;DHT22;3827;49.928;8.548;2023-06-14T01:03:21;16.00;99.90
7572;DHT22;3827;49.928;8.548;2023-06-14T01:05:50;16.00;99.90
7572;DHT22;3827;49.928;8.548;2023-06-14T01:08:28;15.90;99.90
7572;DHT22;3827;49.928;8.548;2023-06-14T01:11:03;15.90;99.90
7572;DHT22;3827;49.928;8.548;2023-06-14T01:13:33;15.90;99.90
7572;DHT22;3827;49.928;8.548;2023-06-14T01:16:01;15.80;99.90
7572;DHT22;3827;49.928;8.548;2023-06-14T01:18:28;15.80;99.90
7572;DHT22;3827;49.928;8.548;2023-06-14T01:20:56;15.80;99.90
7572;DHT22;3827;49.928;8.548;2023-06-14T01:23:24;15.80;99.90
7572;DHT22;3827;49.928;8.548;2023-06-14T01:25:58;15.80;99.90
7572;DHT22;3827;49.928;8.548;2023-06-14T01:28:29;15.80;99.90
7572;DHT22;3827;49.928;8.548;2023-06-14T01:31:00;15.80;99.90
7572;DHT22;3827;49.928;8.548;2023-06-14T01:33:30;15.80;99.90
7572;DHT22;3827;49.928;8.548;2023-06-14T01:35:58;15.80;99.90
7572;DHT22;3827;49.928;8.548;2023-06-14T01:38:27;15.70;99.90
7572;DHT22;3827;49.928;8.548;2023-06-14T01:40:56;15.70;99.90
7572;DHT22;3827;49.928;8.548;2023-06-14T01:43:23;15.70;99.90
7572;DHT22;3827;49.928;8.548;2023-06-14T01:45:51;15.70;99.90
7572;DHT22;3827;49.928;8.548;2023-06-14T01:48:20;15.70;99.90
7572;DHT22;3827;49.928;8.548;2023-06-14T01:50:48;15.70;99.90
7572;DHT22;3827;49.928;8.548;2023-06-14T01:53:15;15.70;99.90
7572;DHT22;3827;49.928;8.548;2023-06-14T01:55:43;15.60;99.90
7572;DHT22;3827;49.928;8.548;2023-06-14T01:58:14;15.60;99.90
7572;DHT22;3827;49.928;8.548;2023-06-14T02:00:41;15.60;99.90
7572;DHT22;3827;49.928;8.548;2023-06-14T02:03:10;15.60;99.90
7572;DHT22;3827;49.928;8.548;2023-06-14T02:05:38;15.50;99.90
7572;DHT22;3827;49.928;8.548;2023-06-14T02:08:06;15.40;99.90
7572;DHT22;3827;49.928;8.548;2023-06-14T02:10:32;15.40;99.90
7572;DHT22;3827;49.928;8.548;2023-06-14T02:13:00;15.40;99.90
7572;DHT22;3827;49.928;8.548;2023-06-14T02:15:27;15.40;99.90
7572;DHT22;3827;49.928;8.548;2023-06-14T02:17:59;15.60;99.90
7572;DHT22;3827;49.928;8.548;2023-06-14T02:20:27;15.30;99.90
7572;DHT22;3827;49.928;8.548;2023-06-14T02:22:54;15.30;99.90
7572;DHT22;3827;49.928;8.548;2023-06-14T02:25:20;15.30;99.90
7572;DHT22;3827;49.928;8.548;2023-06-14T02:27:47;15.20;99.90
7572;DHT22;3827;49.928;8.548;2023-06-14T02:30:15;15.10;99.90
7572;DHT22;3827;49.928;8.548;2023-06-14T02:32:42;15.10;99.90
7572;DHT22;3827;49.928;8.548;2023-06-14T02:35:09;15.00;99.90
7572;DHT22;3827;49.928;8.548;2023-06-14T02:37:36;15.00;99.90
7572;DHT22;3827;49.928;8.548;2023-06-14T02:40:04;15.00;99.90
7572;DHT22;3827;49.928;8.548;2023-06-14T02:42:32;15.00;99.90
7572;DHT22;3827;49.928;8.548;2023-06-14T02:44:59;14.90;99.90
7572;DHT22;3827;49.928;8.548;2023-06-14T02:47:27;14.90;99.90
7572;DHT22;3827;49.928;8.548;2023-06-14T02:49:54;14.80;99.90
7572;DHT22;3827;49.928;8.548;2023-06-14T02:52:20;14.80;99.90
7572;DHT22;3827;49.928;8.548;2023-06-14T02:54:47;14.90;99.90
7572;DHT22;3827;49.928;8.548;2023-06-14T02:57:14;14.80;99.90
7572;DHT22;3827;49.928;8.548;2023-06-14T02:59:41;15.00;99.90
7572;DHT22;3827;49.928;8.548;2023-06-14T03:02:08;14.80;99.90
7572;DHT22;3827;49.928;8.548;2023-06-14T03:04:36;14.80;99.90
7572;DHT22;3827;49.928;8.548;2023-06-14T03:07:04;14.80;99.90
7572;DHT22;3827;49.928;8.548;2023-06-14T03:09:35;14.70;99.90
7572;DHT22;3827;49.928;8.548;2023-06-14T03:12:03;14.70;99.90
7572;DHT22;3827;49.928;8.548;2023-06-14T03:14:32;14.70;99.90
7572;DHT22;3827;49.928;8.548;2023-06-14T03:17:00;14.70;99.90
7572;DHT22;3827;49.928;8.548;2023-06-14T03:19:27;14.60;99.90
7572;DHT22;3827;49.928;8.548;2023-06-14T03:21:55;14.60;99.90
7572;DHT22;3827;49.928;8.548;2023-06-14T03:24:23;14.70;99.90
7572;DHT22;3827;49.928;8.548;2023-06-14T03:26:52;14.70;99.90
7572;DHT22;3827;49.928;8.548;2023-06-14T03:29:19;14.80;99.90
7572;DHT22;3827;49.928;8.548;2023-06-14T03:31:57;14.80;99.90
7572;DHT22;3827;49.928;8.548;2023-06-14T03:34:24;14.80;99.90
7572;DHT22;3827;49.928;8.548;2023-06-14T03:36:51;14.80;99.90
7572;DHT22;3827;49.928;8.548;2023-06-14T03:39:20;14.80;99.90
7572;DHT22;3827;49.928;8.548;2023-06-14T03:41:47;14.80;99.90
7572;DHT22;3827;49.928;8.548;2023-06-14T03:44:15;14.80;99.90
7572;DHT22;3827;49.928;8.548;2023-06-14T03:46:43;14.80;99.90
7572;DHT22;3827;49.928;8.548;2023-06-14T03:49:10;14.80;99.90
7572;DHT22;3827;49.928;8.548;2023-06-14T03:51:37;14.70;99.90
7572;DHT22;3827;49.928;8.548;2023-06-14T03:54:05;14.70;99.90
7572;DHT22;3827;49.928;8.548;2023-06-14T03:56:33;14.80;99.90
7572;DHT22;3827;49.928;8.548;2023-06-14T03:59:00;14.70;99.90
7572;DHT22;3827;49.928;8.548;2023-06-14T04:01:27;14.80;99.90
7572;DHT22;3827;49.928;8.548;2023-06-14T04:03:55;14.80;99.90
7572;DHT22;3827;49.928;8.548;2023-06-14T04:06:23;14.80;99.90
7572;DHT22;3827;49.928;8.548;2023-06-14T04:08:51;14.80;99.90
7572;DHT22;3827;49.928;8.548;2023-06-14T04:11:18;14.80;99.90
7572;DHT22;3827;49.928;8.548;2023-06-14T04:13:49;14.80;99.90
7572;DHT22;3827;49.928;8.548;2023-06-14T04:16:16;14.80;99.90
7572;DHT22;3827;49.928;8.548;2023-06-14T04:18:43;14.90;99.90
7572;DHT22;3827;49.928;8.548;2023-06-14T04:21:10;14.90;99.90
7572;DHT22;3827;49.928;8.548;2023-06-14T04:23:39;15.00;99.90
7572;DHT22;3827;49.928;8.548;2023-06-14T04:26:10;15.00;99.90
7572;DHT22;3827;49.928;8.548;2023-06-14T04:28:37;15.00;99.90
7572;DHT22;3827;49.928;8.548;2023-06-14T04:31:07;15.10;99.90
7572;DHT22;3827;49.928;8.548;2023-06-14T04:33:35;15.10;99.90
7572;DHT22;3827;49.928;8.548;2023-06-14T04:36:08;15.20;99.90
7572;DHT22;3827;49.928;8.548;2023-06-14T04:38:35;15.20;99.90
7572;DHT22;3827;49.928;8.548;2023-06-14T04:41:02;15.30;99.90
7572;DHT22;3827;49.928;8.548;2023-06-14T04:43:29;15.30;99.90
7572;DHT22;3827;49.928;8.548;2023-06-14T04:45:57;15.30;99.90
7572;DHT22;3827;49.928;8.548;2023-06-14T04:48:28;15.70;99.90
7572;DHT22;3827;49.928;8.548;2023-06-14T04:50:57;15.50;99.90
7572;DHT22;3827;49.928;8.548;2023-06-14T04:53:23;15.50;99.90
7572;DHT22;3827;49.928;8.548;2023-06-14T04:55:54;15.60;99.90
7572;DHT22;3827;49.928;8.548;2023-06-14T04:58:21;15.60;99.90
7572;DHT22;3827;49.928;8.548;2023-06-14T05:00:47;15.60;99.90
7572;DHT22;3827;49.928;8.548;2023-06-14T05:03:14;15.70;99.90
7572;DHT22;3827;49.928;8.548;2023-06-14T05:05:42;15.70;99.90
7572;DHT22;3827;49.928;8.548;2023-06-14T05:08:09;15.80;99.90
7572;DHT22;3827;49.928;8.548;2023-06-14T05:10:36;15.80;99.90
7572;DHT22;3827;49.928;8.548;2023-06-14T05:13:03;15.90;99.90
7572;DHT22;3827;49.928;8.548;2023-06-14T05:15:30;15.90;99.90
7572;DHT22;3827;49.928;8.548;2023-06-14T05:17:56;16.00;99.90
7572;DHT22;3827;49.928;8.548;2023-06-14T05:20:24;16.10;99.90
7572;DHT22;3827;49.928;8.548;2023-06-14T05:22:54;16.10;99.90
7572;DHT22;3827;49.928;8.548;2023-06-14T05:25:22;16.20;99.90
7572;DHT22;3827;49.928;8.548;2023-06-14T05:27:49;16.30;99.90
7572;DHT22;3827;49.928;8.548;2023-06-14T05:30:16;16.30;99.90
7572;DHT22;3827;49.928;8.548;2023-06-14T05:32:43;16.40;99.90
7572;DHT22;3827;49.928;8.548;2023-06-14T05:35:10;16.40;99.90
7572;DHT22;3827;49.928;8.548;2023-06-14T05:37:37;16.50;99.90
7572;DHT22;3827;49.928;8.548;2023-06-14T05:40:06;16.50;99.90
7572;DHT22;3827;49.928;8.548;2023-06-14T05:42:34;16.60;99.90
7572;DHT22;3827;49.928;8.548;2023-06-14T05:45:01;16.70;99.90
7572;DHT22;3827;49.928;8.548;2023-06-14T05:47:28;16.80;99.90
7572;DHT22;3827;49.928;8.548;2023-06-14T05:49:54;16.80;99.90
7572;DHT22;3827;49.928;8.548;2023-06-14T05:52:21;17.00;99.90
7572;DHT22;3827;49.928;8.548;2023-06-14T05:54:48;17.00;99.90
7572;DHT22;3827;49.928;8.548;2023-06-14T05:57:16;17.10;99.90
7572;DHT22;3827;49.928;8.548;2023-06-14T05:59:43;17.20;99.90
7572;DHT22;3827;49.928;8.548;2023-06-14T06:02:10;17.20;99.90
7572;DHT22;3827;49.928;8.548;2023-06-14T06:04:37;17.30;99.90
7572;DHT22;3827;49.928;8.548;2023-06-14T06:07:04;17.30;99.90
7572;DHT22;3827;49.928;8.548;2023-06-14T06:09:32;17.40;99.90
7572;DHT22;3827;49.928;8.548;2023-06-14T06:11:59;17.50;99.90
7572;DHT22;3827;49.928;8.548;2023-06-14T06:14:27;17.50;99.90
7572;DHT22;3827;49.928;8.548;2023-06-14T06:16:54;17.60;99.90
7572;DHT22;3827;49.928;8.548;2023-06-14T06:19:21;17.60;99.90
7572;DHT22;3827;49.928;8.548;2023-06-14T06:21:47;17.70;99.90
7572;DHT22;3827;49.928;8.548;2023-06-14T06:24:14;17.80;99.90
7572;DHT22;3827;49.928;8.548;2023-06-14T06:26:41;17.80;99.90
7572;DHT22;3827;49.928;8.548;2023-06-14T06:29:08;17.90;99.90
7572;DHT22;3827;49.928;8.548;2023-06-14T06:31:37;18.00;99.90
7572;DHT22;3827;49.928;8.548;2023-06-14T06:34:03;18.10;99.90
7572;DHT22;3827;49.928;8.548;2023-06-14T06:36:30;18.10;99.90
7572;DHT22;3827;49.928;8.548;2023-06-14T06:38:57;18.20;99.90
7572;DHT22;3827;49.928;8.548;2023-06-14T06:41:24;18.30;99.90
7572;DHT22;3827;49.928;8.548;2023-06-14T06:43:51;18.30;99.90
7572;DHT22;3827;49.928;8.548;2023-06-14T06:46:17;18.50;99.90
7572;DHT22;3827;49.928;8.548;2023-06-14T06:48:46;18.90;99.90
7572;DHT22;3827;49.928;8.548;2023-06-14T06:51:13;18.50;99.90
7572;DHT22;3827;49.928;8.548;2023-06-14T06:53:42;18.70;99.90
7572;DHT22;3827;49.928;8.548;2023-06-14T06:56:09;18.90;99.90
7572;DHT22;3827;49.928;8.548;2023-06-14T06:58:36;18.90;99.90
7572;DHT22;3827;49.928;8.548;2023-06-14T07:01:03;19.00;99.90
7572;DHT22;3827;49.928;8.548;2023-06-14T07:03:30;19.20;99.90
7572;DHT22;3827;49.928;8.548;2023-06-14T07:05:58;19.20;99.90
7572;DHT22;3827;49.928;8.548;2023-06-14T07:08:25;19.40;99.90
7572;DHT22;3827;49.928;8.548;2023-06-14T07:10:52;19.60;99.90
7572;DHT22;3827;49.928;8.548;2023-06-14T07:13:19;19.60;99.90
7572;DHT22;3827;49.928;8.548;2023-06-14T07:15:46;19.30;99.90
7572;DHT22;3827;49.928;8.548;2023-06-14T07:18:13;19.30;99.90
7572;DHT22;3827;49.928;8.548;2023-06-14T07:20:40;19.40;99.90
7572;DHT22;3827;49.928;8.548;2023-06-14T07:23:09;19.50;99.90
7572;DHT22;3827;49.928;8.548;2023-06-14T07:25:36;19.60;99.90
7572;DHT22;3827;49.928;8.548;2023-06-14T07:28:03;19.90;99.90
7572;DHT22;3827;49.928;8.548;2023-06-14T07:30:30;20.00;99.90
7572;DHT22;3827;49.928;8.548;2023-06-14T07:32:57;20.20;99.90
7572;DHT22;3827;49.928;8.548;2023-06-14T07:35:23;20.10;99.90
7572;DHT22;3827;49.928;8.548;2023-06-14T07:37:50;20.20;99.90
7572;DHT22;3827;49.928;8.548;2023-06-14T07:40:18;20.20;99.90
7572;DHT22;3827;49.928;8.548;2023-06-14T07:42:45;20.50;99.90
7572;DHT22;3827;49.928;8.548;2023-06-14T07:45:13;20.80;99.90
7572;DHT22;3827;49.928;8.548;2023-06-14T07:47:40;20.80;99.90
7572;DHT22;3827;49.928;8.548;2023-06-14T07:50:08;20.80;99.90
7572;DHT22;3827;49.928;8.548;2023-06-14T07:52:35;21.00;99.90
7572;DHT22;3827;49.928;8.548;2023-06-14T07:55:02;21.10;99.90
7572;DHT22;3827;49.928;8.548;2023-06-14T07:57:31;20.90;99.90
7572;DHT22;3827;49.928;8.548;2023-06-14T07:59:57;20.70;99.90
7572;DHT22;3827;49.928;8.548;2023-06-14T08:02:24;20.90;99.90
7572;DHT22;3827;49.928;8.548;2023-06-14T08:04:51;21.00;99.90
7572;DHT22;3827;49.928;8.548;2023-06-14T08:07:18;21.20;99.90
7572;DHT22;3827;49.928;8.548;2023-06-14T08:09:45;21.30;99.90
7572;DHT22;3827;49.928;8.548;2023-06-14T08:12:12;21.60;99.90
7572;DHT22;3827;49.928;8.548;2023-06-14T08:14:42;21.50;99.90
7572;DHT22;3827;49.928;8.548;2023-06-14T08:17:09;21.60;99.90
7572;DHT22;3827;49.928;8.548;2023-06-14T08:19:35;21.40;99.90
7572;DHT22;3827;49.928;8.548;2023-06-14T08:22:02;21.70;99.90
7572;DHT22;3827;49.928;8.548;2023-06-14T08:24:30;21.70;99.90
7572;DHT22;3827;49.928;8.548;2023-06-14T08:26:57;21.60;99.90
7572;DHT22;3827;49.928;8.548;2023-06-14T08:29:26;21.50;99.90
7572;DHT22;3827;49.928;8.548;2023-06-14T08:31:56;21.80;99.90
7572;DHT22;3827;49.928;8.548;2023-06-14T08:34:23;22.00;99.90
7572;DHT22;3827;49.928;8.548;2023-06-14T08:36:50;22.10;99.90
7572;DHT22;3827;49.928;8.548;2023-06-14T08:39:16;22.30;99.90
7572;DHT22;3827;49.928;8.548;2023-06-14T08:41:46;22.00;99.90
7572;DHT22;3827;49.928;8.548;2023-06-14T08:44:13;22.10;99.90
7572;DHT22;3827;49.928;8.548;2023-06-14T08:46:41;22.10;99.90
7572;DHT22;3827;49.928;8.548;2023-06-14T08:49:11;22.70;99.90
7572;DHT22;3827;49.928;8.548;2023-06-14T08:51:38;22.70;99.90
7572;DHT22;3827;49.928;8.548;2023-06-14T08:54:06;22.80;99.90
7572;DHT22;3827;49.928;8.548;2023-06-14T08:56:33;22.50;99.90
7572;DHT22;3827;49.928;8.548;2023-06-14T08:59:01;22.80;99.90
7572;DHT22;3827;49.928;8.548;2023-06-14T09:01:30;22.80;99.90
7572;DHT22;3827;49.928;8.548;2023-06-14T09:03:57;22.90;99.90
7572;DHT22;3827;49.928;8.548;2023-06-14T09:06:26;23.20;99.90
7572;DHT22;3827;49.928;8.548;2023-06-14T09:08:55;23.10;99.90
7572;DHT22;3827;49.928;8.548;2023-06-14T09:11:23;23.20;99.90
7572;DHT22;3827;49.928;8.548;2023-06-14T09:13:51;23.40;99.90
7572;DHT22;3827;49.928;8.548;2023-06-14T09:16:18;23.30;99.90
7572;DHT22;3827;49.928;8.548;2023-06-14T09:18:47;22.60;99.90
7572;DHT22;3827;49.928;8.548;2023-06-14T09:21:15;22.20;99.90
7572;DHT22;3827;49.928;8.548;2023-06-14T09:23:44;22.30;99.90
7572;DHT22;3827;49.928;8.548;2023-06-14T09:26:13;22.90;99.90
7572;DHT22;3827;49.928;8.548;2023-06-14T09:28:44;23.50;99.90
7572;DHT22;3827;49.928;8.548;2023-06-14T09:31:11;24.30;99.90
7572;DHT22;3827;49.928;8.548;2023-06-14T09:33:38;24.20;99.90
7572;DHT22;3827;49.928;8.548;2023-06-14T09:36:10;24.50;99.90
7572;DHT22;3827;49.928;8.548;2023-06-14T09:38:37;25.20;99.90
7572;DHT22;3827;49.928;8.548;2023-06-14T09:41:07;25.20;99.90
7572;DHT22;3827;49.928;8.548;2023-06-14T09:43:34;25.00;99.90
7572;DHT22;3827;49.928;8.548;2023-06-14T09:46:01;25.20;99.90
7572;DHT22;3827;49.928;8.548;2023-06-14T09:48:28;25.40;99.90
7572;DHT22;3827;49.928;8.548;2023-06-14T09:50:56;25.30;99.90
7572;DHT22;3827;49.928;8.548;2023-06-14T09:53:24;25.60;99.90
7572;DHT22;3827;49.928;8.548;2023-06-14T09:55:52;25.40;99.90
7572;DHT22;3827;49.928;8.548;2023-06-14T09:58:23;25.00;99.90
7572;DHT22;3827;49.928;8.548;2023-06-14T10:00:53;25.20;99.90
7572;DHT22;3827;49.928;8.548;2023-06-14T10:03:24;24.40;99.90
7572;DHT22;3827;49.928;8.548;2023-06-14T10:05:52;24.60;99.90
7572;DHT22;3827;49.928;8.548;2023-06-14T10:08:24;25.10;99.90
7572;DHT22;3827;49.928;8.548;2023-06-14T10:10:53;25.60;99.90
7572;DHT22;3827;49.928;8.548;2023-06-14T10:13:21;25.30;99.90
7572;DHT22;3827;49.928;8.548;2023-06-14T10:15:55;25.70;99.90
7572;DHT22;3827;49.928;8.548;2023-06-14T10:18:31;24.60;99.90
7572;DHT22;3827;49.928;8.548;2023-06-14T10:21:05;24.50;99.90
7572;DHT22;3827;49.928;8.548;2023-06-14T10:23:38;25.20;99.90
7572;DHT22;3827;49.928;8.548;2023-06-14T10:26:06;26.30;99.90
7572;DHT22;3827;49.928;8.548;2023-06-14T10:28:37;26.30;99.90
7572;DHT22;3827;49.928;8.548;2023-06-14T10:31:06;26.40;99.90
7572;DHT22;3827;49.928;8.548;2023-06-14T10:33:34;26.40;99.90
7572;DHT22;3827;49.928;8.548;2023-06-14T10:36:24;26.50;99.90
7572;DHT22;3827;49.928;8.548;2023-06-14T10:39:00;26.00;99.90
7572;DHT22;3827;49.928;8.548;2023-06-14T10:41:28;25.20;99.90
7572;DHT22;3827;49.928;8.548;2023-06-14T10:47:01;26.10;99.90
7572;DHT22;3827;49.928;8.548;2023-06-14T10:49:43;26.70;99.90
7572;DHT22;3827;49.928;8.548;2023-06-14T10:52:12;25.80;99.90
7572;DHT22;3827;49.928;8.548;2023-06-14T10:55:07;25.90;99.90
7572;DHT22;3827;49.928;8.548;2023-06-14T10:57:39;26.70;99.90
7572;DHT22;3827;49.928;8.548;2023-06-14T11:00:07;27.20;99.90
7572;DHT22;3827;49.928;8.548;2023-06-14T11:05:49;29.10;99.90
7572;DHT22;3827;49.928;8.548;2023-06-14T11:08:50;30.10;99.90
7572;DHT22;3827;49.928;8.548;2023-06-14T11:11:22;29.70;99.90
7572;DHT22;3827;49.928;8.548;2023-06-14T11:13:49;29.40;99.90
7572;DHT22;3827;49.928;8.548;2023-06-14T11:16:17;30.10;99.90
7572;DHT22;3827;49.928;8.548;2023-06-14T11:18:45;30.60;99.90
7572;DHT22;3827;49.928;8.548;2023-06-14T11:21:17;30.70;99.90
7572;DHT22;3827;49.928;8.548;2023-06-14T11:23:49;31.60;99.90
7572;DHT22;3827;49.928;8.548;2023-06-14T11:26:24;31.80;99.90
7572;DHT22;3827;49.928;8.548;2023-06-14T11:28:55;32.00;99.90
7572;DHT22;3827;49.928;8.548;2023-06-14T11:31:22;31.30;99.90
7572;DHT22;3827;49.928;8.548;2023-06-14T11:33:49;29.90;99.90
7572;DHT22;3827;49.928;8.548;2023-06-14T11:36:18;28.80;99.90
7572;DHT22;3827;49.928;8.548;2023-06-14T11:38:45;27.50;99.90
7572;DHT22;3827;49.928;8.548;2023-06-14T11:41:11;26.60;99.90
7572;DHT22;3827;49.928;8.548;2023-06-14T11:43:39;26.70;99.90
7572;DHT22;3827;49.928;8.548;2023-06-14T11:46:12;26.40;99.90
7572;DHT22;3827;49.928;8.548;2023-06-14T11:48:42;26.10;99.90
7572;DHT22;3827;49.928;8.548;2023-06-14T11:51:09;26.60;99.90
7572;DHT22;3827;49.928;8.548;2023-06-14T11:53:38;26.40;99.90
7572;DHT22;3827;49.928;8.548;2023-06-14T11:56:05;26.80;99.90
7572;DHT22;3827;49.928;8.548;2023-06-14T11:58:32;26.80;99.90
7572;DHT22;3827;49.928;8.548;2023-06-14T12:00:59;26.20;99.90
7572;DHT22;3827;49.928;8.548;2023-06-14T12:03:26;25.80;99.90
7572;DHT22;3827;49.928;8.548;2023-06-14T12:06:04;25.90;99.90
7572;DHT22;3827;49.928;8.548;2023-06-14T12:08:33;25.70;99.90
7572;DHT22;3827;49.928;8.548;2023-06-14T12:11:06;25.40;99.90
7572;DHT22;3827;49.928;8.548;2023-06-14T12:13:34;25.20;99.90
7572;DHT22;3827;49.928;8.548;2023-06-14T12:16:01;24.90;99.90
7572;DHT22;3827;49.928;8.548;2023-06-14T12:18:32;25.40;99.90
7572;DHT22;3827;49.928;8.548;2023-06-14T12:21:00;25.70;99.90
7572;DHT22;3827;49.928;8.548;2023-06-14T12:23:39;26.50;99.90
7572;DHT22;3827;49.928;8.548;2023-06-14T12:26:07;27.30;99.90
7572;DHT22;3827;49.928;8.548;2023-06-14T12:28:34;27.60;99.90
7572;DHT22;3827;49.928;8.548;2023-06-14T12:31:01;28.10;99.90
7572;DHT22;3827;49.928;8.548;2023-06-14T12:33:28;29.50;99.90
7572;DHT22;3827;49.928;8.548;2023-06-14T12:35:55;29.80;99.90
7572;DHT22;3827;49.928;8.548;2023-06-14T12:38:23;29.20;99.90
7572;DHT22;3827;49.928;8.548;2023-06-14T12:40:50;28.60;99.90
7572;DHT22;3827;49.928;8.548;2023-06-14T12:43:19;28.90;99.90
7572;DHT22;3827;49.928;8.548;2023-06-14T12:45:46;30.00;99.90
7572;DHT22;3827;49.928;8.548;2023-06-14T12:48:13;30.30;99.90
7572;DHT22;3827;49.928;8.548;2023-06-14T12:50:40;29.70;99.90
7572;DHT22;3827;49.928;8.548;2023-06-14T12:53:07;30.30;99.90
7572;DHT22;3827;49.928;8.548;2023-06-14T12:55:34;30.90;99.90
7572;DHT22;3827;49.928;8.548;2023-06-14T12:58:01;31.00;99.90
7572;DHT22;3827;49.928;8.548;2023-06-14T13:00:29;29.60;99.90
7572;DHT22;3827;49.928;8.548;2023-06-14T13:02:56;29.20;99.90
7572;DHT22;3827;49.928;8.548;2023-06-14T13:05:23;28.60;99.90
7572;DHT22;3827;49.928;8.548;2023-06-14T13:07:50;29.00;99.90
7572;DHT22;3827;49.928;8.548;2023-06-14T13:10:17;30.10;99.90
7572;DHT22;3827;49.928;8.548;2023-06-14T13:12:44;30.60;99.90
7572;DHT22;3827;49.928;8.548;2023-06-14T13:15:11;30.00;99.90
7572;DHT22;3827;49.928;8.548;2023-06-14T13:17:39;29.10;99.90
7572;DHT22;3827;49.928;8.548;2023-06-14T13:20:08;28.30;99.90
7572;DHT22;3827;49.928;8.548;2023-06-14T13:22:35;28.10;99.90
7572;DHT22;3827;49.928;8.548;2023-06-14T13:25:02;27.20;99.90
7572;DHT22;3827;49.928;8.548;2023-06-14T13:27:30;27.70;99.90
7572;DHT22;3827;49.928;8.548;2023-06-14T13:29:57;28.60;99.90
7572;DHT22;3827;49.928;8.548;2023-06-14T13:32:24;28.80;99.90
7572;DHT22;3827;49.928;8.548;2023-06-14T13:34:52;28.70;99.90
7572;DHT22;3827;49.928;8.548;2023-06-14T13:37:18;27.90;99.90
7572;DHT22;3827;49.928;8.548;2023-06-14T13:39:45;27.70;99.90
7572;DHT22;3827;49.928;8.548;2023-06-14T13:42:12;26.90;99.90
7572;DHT22;3827;49.928;8.548;2023-06-14T13:44:39;26.80;99.90
7572;DHT22;3827;49.928;8.548;2023-06-14T13:47:06;26.50;99.90
7572;DHT22;3827;49.928;8.548;2023-06-14T13:49:33;26.30;99.90
7572;DHT22;3827;49.928;8.548;2023-06-14T13:52:02;25.90;99.90
7572;DHT22;3827;49.928;8.548;2023-06-14T13:54:30;25.50;99.90
7572;DHT22;3827;49.928;8.548;2023-06-14T13:56:56;26.30;99.90
7572;DHT22;3827;49.928;8.548;2023-06-14T13:59:23;27.20;99.90
7572;DHT22;3827;49.928;8.548;2023-06-14T14:01:50;28.10;99.90
7572;DHT22;3827;49.928;8.548;2023-06-14T14:04:17;28.70;99.90
7572;DHT22;3827;49.928;8.548;2023-06-14T14:06:44;29.10;99.90
7572;DHT22;3827;49.928;8.548;2023-06-14T14:09:13;29.20;99.90
7572;DHT22;3827;49.928;8.548;2023-06-14T14:11:40;29.90;99.90
7572;DHT22;3827;49.928;8.548;2023-06-14T14:14:07;30.70;99.90
7572;DHT22;3827;49.928;8.548;2023-06-14T14:16:35;31.40;99.90
7572;DHT22;3827;49.928;8.548;2023-06-14T14:19:02;31.40;99.90
7572;DHT22;3827;49.928;8.548;2023-06-14T14:21:29;31.60;99.90
7572;DHT22;3827;49.928;8.548;2023-06-14T14:23:56;31.80;99.90
7572;DHT22;3827;49.928;8.548;2023-06-14T14:26:25;31.70;99.90
7572;DHT22;3827;49.928;8.548;2023-06-14T14:28:52;32.30;99.90
7572;DHT22;3827;49.928;8.548;2023-06-14T14:31:19;31.80;99.90
7572;DHT22;3827;49.928;8.548;2023-06-14T14:33:46;31.20;99.90
7572;DHT22;3827;49.928;8.548;2023-06-14T14:36:12;29.80;99.90
7572;DHT22;3827;49.928;8.548;2023-06-14T14:38:39;28.50;99.90
7572;DHT22;3827;49.928;8.548;2023-06-14T14:41:06;27.90;99.90
7572;DHT22;3827;49.928;8.548;2023-06-14T14:43:34;27.90;99.90
7572;DHT22;3827;49.928;8.548;2023-06-14T14:46:01;28.40;99.90
7572;DHT22;3827;49.928;8.548;2023-06-14T14:48:28;28.40;99.90
7572;DHT22;3827;49.928;8.548;2023-06-14T14:50:55;28.80;99.90
7572;DHT22;3827;49.928;8.548;2023-06-14T14:53:22;29.10;99.90
7572;DHT22;3827;49.928;8.548;2023-06-14T14:55:48;29.80;99.90
7572;DHT22;3827;49.928;8.548;2023-06-14T14:58:15;30.80;99.90
7572;DHT22;3827;49.928;8.548;2023-06-14T15:00:45;30.80;99.90
7572;DHT22;3827;49.928;8.548;2023-06-14T15:03:11;31.50;99.90
7572;DHT22;3827;49.928;8.548;2023-06-14T15:05:38;32.10;99.90
7572;DHT22;3827;49.928;8.548;2023-06-14T15:08:06;32.50;99.90
7572;DHT22;3827;49.928;8.548;2023-06-14T15:10:37;31.90;99.90
7572;DHT22;3827;49.928;8.548;2023-06-14T15:13:05;30.40;99.90
7572;DHT22;3827;49.928;8.548;2023-06-14T15:15:32;29.20;99.90
7572;DHT22;3827;49.928;8.548;2023-06-14T15:18:01;28.20;99.90
7572;DHT22;3827;49.928;8.548;2023-06-14T15:20:27;26.90;99.90
7572;DHT22;3827;49.928;8.548;2023-06-14T15:22:55;26.90;99.90
7572;DHT22;3827;49.928;8.548;2023-06-14T15:25:25;27.60;99.90
7572;DHT22;3827;49.928;8.548;2023-06-14T15:27:52;28.50;99.90
7572;DHT22;3827;49.928;8.548;2023-06-14T15:30:19;29.00;99.90
7572;DHT22;3827;49.928;8.548;2023-06-14T15:32:45;29.50;99.90
7572;DHT22;3827;49.928;8.548;2023-06-14T15:35:16;29.80;99.90
7572;DHT22;3827;49.928;8.548;2023-06-14T15:37:42;29.80;99.90
7572;DHT22;3827;49.928;8.548;2023-06-14T15:40:10;29.50;99.90
7572;DHT22;3827;49.928;8.548;2023-06-14T15:42:37;29.40;99.90
7572;DHT22;3827;49.928;8.548;2023-06-14T15:45:04;28.60;99.90
7572;DHT22;3827;49.928;8.548;2023-06-14T15:47:31;29.20;99.90
7572;DHT22;3827;49.928;8.548;2023-06-14T15:49:58;29.20;99.90
7572;DHT22;3827;49.928;8.548;2023-06-14T15:52:26;28.20;99.90
7572;DHT22;3827;49.928;8.548;2023-06-14T15:54:53;28.60;99.90
7572;DHT22;3827;49.928;8.548;2023-06-14T15:57:20;28.40;99.90
7572;DHT22;3827;49.928;8.548;2023-06-14T15:59:47;28.20;99.90
7572;DHT22;3827;49.928;8.548;2023-06-14T16:02:14;27.70;99.90
7572;DHT22;3827;49.928;8.548;2023-06-14T16:04:41;27.50;99.90
7572;DHT22;3827;49.928;8.548;2023-06-14T16:07:07;28.10;99.90
7572;DHT22;3827;49.928;8.548;2023-06-14T16:09:36;27.60;99.90
7572;DHT22;3827;49.928;8.548;2023-06-14T16:14:30;27.30;99.90
7572;DHT22;3827;49.928;8.548;2023-06-14T16:16:57;27.60;99.90